You are here

Stations

Station Name Date Time Temperature Relative Humidity Precipitation Wind Speed Wind Direction Create Custom Report Daily Report Hourly Report
A&O Farm 2026-06-05 7:45 62.0 97.20 0.06 6.79 N
Aberdeen VTcrn 2026-06-05 7:45 71.0 84.90 0.00 5.91 SSE
Beaumont Exp Stn 2026-06-05 7:45 69.5 95.50 0.00 1.01 SE
Bee Lake 2026-06-05 7:45 71.9 88.80 0.00 2.72 SW
Belzoni 2026-06-05 7:45 73.2 84.90 0.00 7.59 SSW
Black Belt F24 VTcrn 2026-06-05 7:45 70.2 90.20 0.00 0.54 S
Blk Belt F22-23 VTso 2026-06-05 7:45 70.7 83.60 0.02 5.22 SSE
Brooksville 2026-06-05 7:45 70.3 83.80 0.00 7.94 S
Brooksville2 VTso 2026-06-05 7:45 70.0 88.50 0.00
Brown Loam Exp. Stn. 2026-06-05 7:45 70.8 88.40 0.00 0.47 SSW
Brown Loam VT1crn/so 2026-06-05 7:45 -148.0 -100.00 0.00 0.56 SE
Brown Loam VT2crn/so 2026-06-05 7:45 70.9 94.30 0.00 0.75 SE
Canton 2026-06-05 7:44
Cary 2026-06-05 7:45 72.7 85.70 0.00 4.16 S
Clarksdale VTso 2026-06-05 7:45 56.6 96.90 0.06
Cleveland 2026-06-05 7:45 58.6 93.80 0.01 6.84 NNE
Coastal Res & Ext Cnt 2026-06-05 7:45 74.3 90.80 0.00 3.29 SSW
Como 2026-06-05 7:45 56.7 95.20 0.42 3.95 NW
Cooper Farm 2026-06-05 7:45 73.3 88.50 0.00 8.86 SSW
Crystal Sprgs Exp Stn 2026-06-05 7:45 70.6 96.00 0.00 1.62 SE
Delta City 2026-06-05 7:45 73.1 85.80 0.00 8.48 SSW
Dundee 2026-06-05 7:45 53.3 93.60 0.46 2.13 ENE
Greenwood 2026-06-05 7:45 73.0 85.10 0.00 1.36 SE
Holly Bluff 2026-06-05 7:45 72.7 86.60 0.00 4.19 SSE
Holly Ridge 2026-06-05 7:45 66.2 94.40 0.03 7.68 NNW
Home Cypress Farm 2026-06-05 7:45 56.2 92.30 0.04 0.79 NNW
Houston 2026-06-05 7:45 72.6 83.10 0.00 7.25 S
Lamar 2026-06-05 7:45 54.2 95.00 1.81 0.12 SW
Lancaster 2026-06-05 7:45 74.0 89.10 0.00 5.72 SSW
Longwood VTso 2026-06-05 7:45 73.9 89.20 0.00 8.87 E
Lyon 2026-06-05 7:45 53.8 96.40 0.65 6.51 NNE
Macon VTcrn 2026-06-05 7:45 71.0 90.50 0.00 3.36 SSE
Mantee VT 2026-06-05 7:45 72.5 89.00 0.00 3.80 N
McNeill 2026-06-05 7:45 72.4 93.70 0.00 5.47 SE
Minter City VTcn 2026-06-05 7:45 62.6 94.70 0.16 0.24 NNW
Money 2026-06-05 7:45 65.4 95.90 0.01 3.76 N
Mound Bayou 2026-06-05 7:45 58.0 97.60 0.03 4.51 NNE
MSU North Farm Starkv 2026-06-05 7:45 72.0 83.80 0.00 5.52 S
MSU South Farm Starkv 2026-06-05 7:45 71.2 84.50 0.00 6.82 S
Natchez 2026-06-05 7:45 73.0 92.70 0.00 0.07 ESE
Newton 2026-06-05 7:45 69.5 90.60 0.00 1.21 SE
Olive Branch VTcr 2026-06-05 7:45 53.3 96.10 2.38 0.00 NE
Olive Branch2 VTso 2026-06-05 7:45 55.0 94.80 0.38
Onward VTcrn 2026-06-05 7:45 73.8 91.20 0.00
Oxberry 2026-06-05 7:45 65.7 90.30 0.02 2.53 NW
Pontotoc AWS COOP 2026-06-05 7:44
Pontotoc Exp Stn 2026-06-05 7:45 66.2 95.60 0.08 1.92 SSE
Poplarville 2026-06-05 7:45 71.7 93.60 0.00 3.94 SSE
Port Gibson 2026-06-05 7:45 70.4 97.30 0.00 1.00 ENE
Prairie 2026-06-05 7:45 69.9 89.90 0.00 3.89 SSW
Senatobia 2026-06-05 7:45 54.4 95.50 0.68 3.11 NNE
Shurden Farm 2026-06-05 7:45 58.5 93.20 0.00 5.40 N
Sidon 2026-06-05 7:45 73.8 88.20 0.00 5.76 NE
Sledge 2026-06-05 7:45 56.5 96.90 0.43 4.86 NNE
Stnville F7 VTcrn/so 2026-06-05 7:45 73.2 60.83 0.00
Stoneville AWS 2026-06-05 7:45 68.8 93.80 0.00 2.95 NNW
Stoneville F10 2026-06-05 7:45 72.4 90.10 0.00 7.37 N
Stoneville F17 VTso 2026-06-05 7:45 69.9 89.00 0.01
Stoneville W 2026-06-05 7:45 68.6 91.80 0.02 9.12 NNE
Stoneville_F8 2026-06-05 7:30 73.1 89.50 0.00 7.47 SSW
Stoneville_SW 2026-06-05 7:45 73.6 86.40 0.00 8.30 N
Thighman 2026-06-05 7:45 75.0 87.40 0.00 5.79 SSW
Tippo VTso 2026-06-05 7:45 61.8 80.60 0.00
Tribbett 2026-06-05 7:15 73.7 89.30 0.00 7.05 S
Tunica 2026-06-05 7:45 -148.0 -100.00 1.01 6.12 NNE
Vaiden 2026-06-05 7:45 72.3 87.30 0.00 2.28 W
Verona 2026-06-05 7:45 66.5 94.30 0.03 2.13 NE
Verona VTcrn/so 2026-06-05 7:45 66.9 94.30 0.08
Vicksburg 2026-06-05 7:45 73.2 93.00 0.00 1.69 NW
White Sand 2026-06-05 7:45 72.1 91.90 0.00 3.58 ESE
Back to Top